Time;durP1;ratioP1;P1;durP2;ratioP2;P2;SDS_P1;SDS_P2;PMS_P1;PMS_P2;Temp;Humidity;BMP_temperature;BMP_pressure;BME280_temperature;BME280_humidity;BME280_pressure;Samples;Min_cycle;Max_cycle;Signal;HPM_P1;HPM_P2
2022/02/01 00:01:47;;;;;;;27.73;12.38;;;2.20;99.90;;;;;;5063760;23;20089;-79
2022/02/01 00:04:21;;;;;;;28.90;11.45;;;2.10;99.90;;;;;;4919797;29;20032;-79
2022/02/01 00:09:26;;;;;;;27.30;12.02;;;2.20;99.90;;;;;;4911649;29;20047;-79
2022/02/01 00:12:09;;;;;;;39.13;12.98;;;2.10;99.90;;;;;;4895050;29;20033;-78
2022/02/01 00:15:12;;;;;;;32.13;12.00;;;2.20;99.90;;;;;;4910668;29;20032;-79
2022/02/01 00:35:49;;;;;;;43.15;17.45;;;2.20;99.90;;;;;;4917553;29;20029;-80
2022/02/01 00:38:22;;;;;;;30.75;13.60;;;2.10;99.90;;;;;;4900750;29;20017;-80
2022/02/01 00:40:55;;;;;;;25.40;11.25;;;2.10;99.90;;;;;;4904677;29;20024;-80
2022/02/01 00:43:22;;;;;;;26.45;10.15;;;2.10;99.90;;;;;;4907171;29;20524;-80
2022/02/01 00:45:48;;;;;;;22.90;11.05;;;2.10;99.90;;;;;;4920663;29;20204;-79
2022/02/01 00:48:15;;;;;;;26.00;11.48;;;2.10;99.90;;;;;;4903137;29;20112;-81
2022/02/01 00:50:41;;;;;;;28.23;13.30;;;2.10;99.90;;;;;;4901758;29;20019;-80
2022/02/01 00:53:07;;;;;;;21.77;10.02;;;2.10;99.90;;;;;;4901242;29;20024;-80
2022/02/01 00:55:33;;;;;;;;;;;2.10;99.90;;;;;;4901846;29;20033;-80
2022/02/01 00:57:59;;;;;;;23.45;9.82;;;2.10;99.90;;;;;;4916494;29;19923;-79
2022/02/01 01:00:24;;;;;;;24.83;11.77;;;2.20;99.90;;;;;;4901000;29;20057;-79
2022/02/01 01:02:50;;;;;;;;;;;2.10;99.90;;;;;;4917719;29;20022;-79
2022/02/01 01:05:16;;;;;;;26.58;10.68;;;2.10;99.90;;;;;;4917549;29;19911;-80
2022/02/01 01:07:42;;;;;;;18.15;8.90;;;1.90;99.90;;;;;;4934087;29;20032;-79
2022/02/01 01:10:09;;;;;;;;;;;1.90;99.90;;;;;;4919104;29;20013;-79
2022/02/01 01:12:43;;;;;;;28.27;11.32;;;1.90;99.90;;;;;;4935191;29;19919;-79
2022/02/01 01:15:23;;;;;;;28.77;10.90;;;2.00;99.90;;;;;;4934661;29;20032;-79
2022/02/01 01:18:23;;;;;;;27.33;10.73;;;2.00;99.90;;;;;;4932737;29;20035;-80
2022/02/01 01:53:51;;;;;;;14.27;7.28;;;2.50;99.90;;;;;;4934317;29;20043;-78
2022/02/01 01:56:16;;;;;;;;;;;2.50;99.90;;;;;;4936984;29;20032;-80
2022/02/01 02:01:18;;;;;;;11.68;6.38;;;2.40;99.90;;;;;;5220536;23;20405;-77
2022/02/01 02:03:45;;;;;;;;;;;2.30;99.90;;;;;;4956118;29;20061;-78
2022/02/01 02:06:12;;;;;;;11.65;6.15;;;2.30;99.90;;;;;;4955719;29;19907;-78
2022/02/01 02:08:44;;;;;;;14.48;7.15;;;2.30;99.90;;;;;;4957149;29;20107;-80
2022/02/01 02:11:14;;;;;;;17.27;7.05;;;2.30;99.90;;;;;;4951749;29;20056;-78
2022/02/01 02:16:38;;;;;;;14.73;7.47;;;2.20;99.90;;;;;;4953361;29;20104;-78
2022/02/01 02:19:05;;;;;;;14.85;6.47;;;2.10;99.90;;;;;;4956744;29;20024;-77
2022/02/01 02:21:32;;;;;;;18.30;9.15;;;2.00;99.90;;;;;;4957873;29;20012;-78
2022/02/01 02:23:58;;;;;;;14.23;7.93;;;2.00;99.90;;;;;;4959140;29;20024;-79
2022/02/01 02:26:24;;;;;;;18.17;8.43;;;2.00;99.90;;;;;;4959728;29;20016;-79
2022/02/01 02:28:50;;;;;;;15.70;8.48;;;2.00;99.90;;;;;;4959667;29;20036;-78
2022/02/01 02:31:18;;;;;;;;;;;2.00;99.90;;;;;;4957781;29;20020;-79
2022/02/01 02:33:45;;;;;;;13.68;5.78;;;2.10;99.90;;;;;;4956874;29;19894;-78
2022/02/01 02:36:15;;;;;;;13.75;6.50;;;2.20;99.90;;;;;;4956119;29;20028;-78
2022/02/01 02:46:32;;;;;;;15.43;5.45;;;2.30;99.90;;;;;;4956737;29;20019;-79
2022/02/01 02:48:58;;;;;;;12.45;4.93;;;2.20;99.90;;;;;;4959719;29;20024;-78
2022/02/01 02:51:26;;;;;;;10.88;4.55;;;2.10;99.90;;;;;;4944220;29;20050;-78
2022/02/01 02:53:52;;;;;;;10.27;5.32;;;2.00;99.90;;;;;;4963009;29;20007;-79
2022/02/01 02:56:18;;;;;;;;;;;2.10;99.90;;;;;;4962214;29;20034;-79
2022/02/01 02:58:48;;;;;;;15.85;7.40;;;2.00;99.90;;;;;;4945936;29;19901;-79
2022/02/01 03:01:14;;;;;;;15.90;6.63;;;2.00;99.90;;;;;;4962762;29;20079;-79
2022/02/01 03:03:40;;;;;;;;;;;1.80;99.90;;;;;;4961783;29;20043;-78
2022/02/01 03:06:07;;;;;;;19.50;6.68;;;1.90;99.90;;;;;;4946348;29;19973;-79
2022/02/01 03:08:33;;;;;;;21.73;10.15;;;1.90;99.90;;;;;;4946237;29;20028;-79
2022/02/01 03:11:01;;;;;;;23.33;10.90;;;1.80;99.90;;;;;;4946102;29;20082;-79
2022/02/01 03:13:30;;;;;;;14.05;7.10;;;1.80;99.90;;;;;;4962534;29;20022;-79
2022/02/01 03:16:27;;;;;;;12.35;6.85;;;1.80;99.90;;;;;;4944733;29;20064;-77
2022/02/01 03:21:40;;;;;;;13.23;7.03;;;1.60;99.90;;;;;;4961235;29;20063;-78
2022/02/01 03:24:07;;;;;;;17.38;7.72;;;1.60;99.90;;;;;;4945703;29;20020;-80
2022/02/01 03:26:32;;;;;;;;;;;1.40;99.90;;;;;;4946162;29;20020;-79
2022/02/01 03:28:58;;;;;;;13.57;6.30;;;1.50;99.90;;;;;;4945268;29;19951;-79
2022/02/01 03:31:24;;;;;;;;;;;1.40;99.90;;;;;;4960864;29;20116;-79
2022/02/01 03:33:50;;;;;;;17.45;6.97;;;1.40;99.90;;;;;;4957941;29;19890;-79
2022/02/01 03:36:16;;;;;;;16.05;7.38;;;1.30;99.90;;;;;;4958821;29;20032;-79
2022/02/01 03:38:42;;;;;;;12.65;5.45;;;1.30;99.90;;;;;;4961542;29;20051;-78
2022/02/01 03:41:08;;;;;;;;;;;1.40;99.90;;;;;;4945700;29;20027;-79
2022/02/01 03:43:34;;;;;;;11.65;5.00;;;1.30;99.90;;;;;;4942590;29;19933;-78
2022/02/01 03:46:02;;;;;;;;;;;1.20;99.90;;;;;;4943889;29;20115;-79
2022/02/01 03:48:28;;;;;;;11.45;4.18;;;1.10;99.90;;;;;;4944462;29;19906;-78
2022/02/01 03:50:54;;;;;;;;;;;1.00;99.90;;;;;;4941189;29;20032;-80
2022/02/01 03:53:20;;;;;;;21.92;8.25;;;0.90;99.90;;;;;;4944573;29;19930;-79
2022/02/01 03:55:45;;;;;;;15.35;8.00;;;0.80;99.90;;;;;;4944811;29;20097;-77
2022/02/01 03:58:11;;;;;;;;;;;0.80;99.90;;;;;;4958512;29;20040;-78
2022/02/01 04:00:39;;;;;;;17.10;5.57;;;0.80;99.90;;;;;;4957290;29;19922;-79
2022/02/01 04:03:05;;;;;;;12.70;5.82;;;0.80;99.90;;;;;;4940884;29;20034;-77
2022/02/01 04:05:31;;;;;;;;;;;0.90;99.90;;;;;;4956389;29;20031;-78
2022/02/01 04:07:57;;;;;;;15.17;6.57;;;0.90;99.90;;;;;;4956809;29;19931;-78
2022/02/01 04:10:23;;;;;;;;;;;1.00;99.90;;;;;;4941920;29;20031;-79
2022/02/01 04:12:50;;;;;;;10.98;4.85;;;1.20;99.90;;;;;;4957552;29;19933;-78
2022/02/01 04:15:19;;;;;;;13.55;5.28;;;1.10;99.90;;;;;;4941985;29;20132;-78
2022/02/01 04:17:45;;;;;;;13.75;5.78;;;1.10;99.90;;;;;;4941464;29;20075;-78
2022/02/01 04:20:11;;;;;;;14.85;6.95;;;1.20;99.90;;;;;;4957232;29;20031;-77
2022/02/01 04:22:37;;;;;;;;;;;1.20;99.90;;;;;;4941611;29;20015;-78
2022/02/01 04:25:03;;;;;;;13.95;5.00;;;1.10;99.90;;;;;;4956698;29;19914;-78
2022/02/01 04:27:32;;;;;;;9.88;4.65;;;1.30;99.90;;;;;;4958061;29;20003;-79
2022/02/01 04:30:07;;;;;;;9.43;4.90;;;1.20;99.90;;;;;;4958211;29;20100;-78
2022/02/01 04:32:54;;;;;;;12.23;5.57;;;1.30;99.90;;;;;;4942530;29;20039;-78
2022/02/01 04:35:25;;;;;;;8.68;5.10;;;1.20;99.90;;;;;;4940320;29;20028;-77
2022/02/01 04:37:54;;;;;;;13.23;6.85;;;1.30;99.90;;;;;;4956964;29;20047;-79
2022/02/01 04:40:20;;;;;;;18.77;8.48;;;1.40;99.90;;;;;;4957299;29;20006;-79
2022/02/01 04:42:46;;;;;;;26.83;11.80;;;1.30;99.90;;;;;;4958518;29;20024;-77
2022/02/01 04:45:13;;;;;;;;;;;1.40;99.90;;;;;;4941463;29;20023;-78
2022/02/01 04:47:41;;;;;;;;;;;1.30;99.90;;;;;;4957692;29;19890;-78
2022/02/01 04:50:12;;;;;;;87.88;32.90;;;1.40;99.90;;;;;;4956591;29;19910;-78
2022/02/01 04:52:39;;;;;;;44.75;17.42;;;1.40;99.90;;;;;;4956868;29;20087;-78
2022/02/01 04:55:06;;;;;;;32.88;12.25;;;1.40;99.90;;;;;;4940677;29;20011;-78
2022/02/01 04:57:32;;;;;;;34.70;17.80;;;1.50;99.90;;;;;;4957396;29;20043;-78
2022/02/01 04:59:57;;;;;;;;;;;1.50;99.90;;;;;;4940165;29;20032;-78
2022/02/01 05:02:23;;;;;;;20.42;8.98;;;1.40;99.90;;;;;;4956236;29;19938;-79
2022/02/01 05:04:49;;;;;;;30.52;16.15;;;1.40;99.90;;;;;;4955449;29;20105;-78
2022/02/01 05:07:20;;;;;;;;;;;1.40;99.90;;;;;;4956611;29;20036;-78
2022/02/01 05:09:46;;;;;;;20.50;9.90;;;1.40;99.90;;;;;;4955422;29;19949;-78
2022/02/01 05:12:12;;;;;;;17.13;8.55;;;1.50;99.90;;;;;;4955605;29;20031;-78
2022/02/01 05:14:38;;;;;;;;;;;1.50;99.90;;;;;;4938454;29;20015;-78
2022/02/01 05:17:04;;;;;;;14.43;6.50;;;1.40;99.90;;;;;;4954752;29;19910;-78
2022/02/01 05:19:47;;;;;;;10.57;6.40;;;1.50;99.90;;;;;;4956206;29;20487;-78
2022/02/01 05:22:18;;;;;;;18.63;8.13;;;1.40;99.90;;;;;;4940529;29;20027;-79
2022/02/01 05:24:45;;;;;;;18.75;8.82;;;1.50;99.90;;;;;;4940884;29;20032;-78
2022/02/01 05:27:12;;;;;;;28.25;12.80;;;1.40;99.90;;;;;;4955456;29;20544;-78
2022/02/01 05:29:39;;;;;;;24.95;12.60;;;1.50;99.90;;;;;;4936331;29;20039;-78
2022/02/01 05:35:03;;;;;;;25.00;12.35;;;1.80;99.90;;;;;;4940470;29;20056;-78
2022/02/01 05:37:29;;;;;;;33.67;16.00;;;1.80;99.90;;;;;;4951984;29;20028;-78
2022/02/01 05:39:57;;;;;;;;;;;1.70;99.90;;;;;;4954095;29;20104;-78
2022/02/01 05:42:29;;;;;;;30.38;16.10;;;1.80;99.90;;;;;;4937338;29;19907;-78
2022/02/01 05:44:55;;;;;;;37.95;14.68;;;1.80;99.90;;;;;;4957097;29;20027;-78
2022/02/01 05:47:21;;;;;;;;;;;1.80;99.90;;;;;;4957888;29;20027;-78
2022/02/01 05:49:47;;;;;;;28.90;11.02;;;1.80;99.90;;;;;;4954501;29;19910;-78
2022/02/01 05:52:13;;;;;;;19.10;10.32;;;1.80;99.90;;;;;;4936430;29;20036;-77
2022/02/01 05:54:39;;;;;;;22.08;9.43;;;1.90;99.90;;;;;;4953357;29;20035;-79
2022/02/01 05:57:05;;;;;;;;;;;1.80;99.90;;;;;;4954012;29;20021;-78
2022/02/01 05:59:31;;;;;;;45.58;18.38;;;1.80;99.90;;;;;;4951241;29;19918;-78
2022/02/01 06:01:58;;;;;;;;;;;1.70;99.90;;;;;;4935032;29;20035;-78
2022/02/01 06:04:24;;;;;;;;;;;1.70;99.90;;;;;;4934854;29;19911;-79
2022/02/01 06:06:49;;;;;;;38.08;17.20;;;1.70;99.90;;;;;;4935238;29;19919;-77
2022/02/01 06:09:15;;;;;;;;;;;1.70;99.90;;;;;;4934618;29;20032;-78
2022/02/01 06:11:41;;;;;;;34.72;15.63;;;1.70;99.90;;;;;;4931809;29;20314;-78
2022/02/01 06:14:06;;;;;;;;;;;1.50;99.90;;;;;;4932799;29;20055;-77
2022/02/01 06:16:32;;;;;;;20.58;9.32;;;1.40;99.90;;;;;;4949394;29;19970;-78
2022/02/01 06:18:58;;;;;;;;;;;1.30;99.90;;;;;;4947842;29;20062;-78
2022/02/01 06:21:24;;;;;;;22.27;9.88;;;1.20;99.90;;;;;;4948236;29;19918;-78
2022/02/01 06:23:50;;;;;;;17.67;9.32;;;1.10;99.90;;;;;;4933650;29;20024;-78
2022/02/01 06:26:16;;;;;;;;;;;1.10;99.90;;;;;;4953034;29;20502;-78
2022/02/01 06:28:43;;;;;;;21.25;8.70;;;1.10;99.90;;;;;;4936990;29;19946;-78
2022/02/01 06:31:08;;;;;;;98.30;35.55;;;1.00;99.90;;;;;;4952755;29;20036;-78
2022/02/01 06:33:34;;;;;;;;;;;1.00;99.90;;;;;;4953538;29;20070;-78
2022/02/01 06:36:00;;;;;;;40.95;15.00;;;1.00;99.90;;;;;;4954853;29;19965;-78
2022/02/01 06:38:27;;;;;;;;;;;1.00;99.90;;;;;;4954903;29;20052;-78
2022/02/01 06:40:53;;;;;;;24.10;11.23;;;1.00;99.90;;;;;;4953617;29;20260;-78
2022/02/01 06:43:18;;;;;;;;;;;1.00;99.90;;;;;;4954221;29;20032;-77
2022/02/01 06:45:44;;;;;;;44.05;21.92;;;1.10;99.90;;;;;;4937989;29;19907;-78
2022/02/01 06:48:10;;;;;;;;;;;1.00;99.90;;;;;;4955826;29;20088;-78
2022/02/01 06:50:36;;;;;;;34.78;16.75;;;1.20;99.90;;;;;;4939231;29;19897;-78
2022/02/01 06:53:03;;;;;;;;;;;1.20;99.90;;;;;;4937986;29;20085;-78
2022/02/01 06:55:36;;;;;;;23.48;13.18;;;1.30;99.90;;;;;;4949705;29;19924;-78
2022/02/01 06:58:03;;;;;;;25.98;12.18;;;1.40;99.90;;;;;;4935135;29;20046;-78
2022/02/01 07:00:31;;;;;;;26.58;12.40;;;1.40;99.90;;;;;;4954692;29;20048;-78
2022/02/01 07:02:57;;;;;;;18.95;10.02;;;1.40;99.90;;;;;;4954098;29;20022;-79
2022/02/01 07:05:23;;;;;;;;;;;1.50;99.90;;;;;;4954596;29;20024;-78
2022/02/01 07:07:50;;;;;;;16.63;6.85;;;1.60;99.90;;;;;;4960525;29;19901;-78
2022/02/01 07:10:19;;;;;;;15.18;7.53;;;1.60;99.90;;;;;;4962530;29;20022;-78
2022/02/01 07:12:45;;;;;;;19.85;9.15;;;1.60;99.90;;;;;;4960634;29;20019;-78
2022/02/01 07:15:14;;;;;;;16.73;7.00;;;1.70;99.90;;;;;;4945637;29;20043;-79
2022/02/01 07:17:49;;;;;;;38.85;21.58;;;1.80;99.90;;;;;;4960904;29;20023;-77
2022/02/01 07:20:19;;;;;;;39.95;19.50;;;1.70;99.90;;;;;;4960709;29;20043;-81
2022/02/01 07:22:47;;;;;;;39.05;19.80;;;1.80;99.90;;;;;;4943306;29;20044;-80
2022/02/01 07:25:29;;;;;;;43.28;22.10;;;1.90;99.90;;;;;;4960491;29;20008;-78
2022/02/01 07:27:55;;;;;;;44.17;24.00;;;2.10;99.90;;;;;;4929755;29;20020;-78
2022/02/01 07:30:27;;;;;;;42.33;19.67;;;2.30;99.90;;;;;;4931492;29;20035;-78
2022/02/01 07:32:54;;;;;;;41.85;20.38;;;2.40;99.90;;;;;;4939655;29;20016;-77
2022/02/01 07:35:22;;;;;;;38.85;19.63;;;2.50;99.90;;;;;;4952858;29;20038;-80
2022/02/01 07:37:49;;;;;;;39.20;18.75;;;2.40;99.90;;;;;;4936544;29;20030;-77
2022/02/01 07:40:15;;;;;;;33.25;16.48;;;2.60;99.90;;;;;;4937379;29;20051;-79
2022/02/01 07:42:40;;;;;;;;;;;2.70;99.90;;;;;;4953530;29;20016;-79
2022/02/01 07:45:09;;;;;;;44.10;19.88;;;2.80;99.90;;;;;;4954602;29;19911;-78
2022/02/01 07:47:35;;;;;;;46.97;22.42;;;3.00;99.90;;;;;;4938342;29;20059;-81
2022/02/01 07:50:00;;;;;;;;;;;3.10;99.90;;;;;;4936562;29;20052;-79
2022/02/01 07:52:26;;;;;;;51.83;26.13;;;3.30;99.90;;;;;;4948674;29;19951;-81
2022/02/01 07:54:52;;;;;;;;;;;3.40;99.90;;;;;;4939651;29;20015;-80
2022/02/01 07:57:19;;;;;;;49.78;23.02;;;3.40;99.90;;;;;;4952966;29;19915;-78
2022/02/01 07:59:45;;;;;;;44.92;18.60;;;3.60;99.90;;;;;;4942359;29;20034;-77
2022/02/01 08:02:20;;;;;;;;;;;3.70;99.90;;;;;;4948387;29;20490;-79
2022/02/01 08:04:48;;;;;;;32.53;11.95;;;3.70;99.90;;;;;;4952673;29;19898;-80
2022/02/01 08:07:15;;;;;;;23.48;9.98;;;3.90;99.90;;;;;;4957230;29;20031;-79
2022/02/01 08:09:44;;;;;;;37.15;9.00;;;4.00;99.90;;;;;;4957849;29;20092;-80
2022/02/01 08:15:49;;;;;;;30.67;9.45;;;4.30;99.90;;;;;;4960061;29;20067;-80
2022/02/01 08:17:58;;;;;;;29.95;10.15;;;4.40;99.90;;;;;;4957956;29;20028;-80
2022/02/01 08:20:29;;;;;;;31.13;9.70;;;4.60;99.90;;;;;;4943726;29;20038;-80
2022/02/01 08:25:23;;;;;;;21.95;8.68;;;4.90;99.90;;;;;;4954894;29;20044;-79
2022/02/01 08:27:49;;;;;;;20.50;6.32;;;5.20;99.90;;;;;;4958342;29;20035;-80
2022/02/01 08:30:16;;;;;;;18.80;5.10;;;5.60;99.90;;;;;;4939259;29;20031;-79
2022/02/01 08:32:43;;;;;;;16.48;5.57;;;5.80;99.90;;;;;;4961131;29;20091;-79
2022/02/01 08:35:09;;;;;;;15.40;4.40;;;5.90;99.90;;;;;;4958663;29;20036;-79
2022/02/01 08:37:35;;;;;;;21.63;5.05;;;5.90;98.80;;;;;;4957842;29;20043;-79
2022/02/01 08:40:01;;;;;;;17.77;4.20;;;6.00;97.80;;;;;;4959065;29;20043;-79
2022/02/01 08:42:27;;;;;;;;;;;6.10;98.50;;;;;;4939997;29;20016;-78
2022/02/01 08:44:53;;;;;;;16.70;4.68;;;6.00;97.40;;;;;;4958566;29;19967;-80
2022/02/01 08:47:19;;;;;;;13.05;3.60;;;6.20;99.30;;;;;;4962429;29;20012;-80
2022/02/01 08:49:45;;;;;;;12.15;3.95;;;6.20;99.20;;;;;;4954063;29;20083;-78
2022/02/01 08:52:20;;;;;;;;;;;6.20;98.30;;;;;;4953915;29;20067;-77
2022/02/01 08:54:51;;;;;;;16.95;4.90;;;6.20;97.90;;;;;;4954286;29;19942;-80
2022/02/01 08:57:24;;;;;;;13.45;3.78;;;6.10;98.80;;;;;;4942004;29;20024;-80
2022/02/01 09:00:00;;;;;;;14.65;3.63;;;6.10;99.80;;;;;;4957029;29;20024;-79
2022/02/01 09:02:27;;;;;;;19.08;4.80;;;6.00;99.70;;;;;;4958184;29;20031;-79
2022/02/01 09:04:53;;;;;;;16.33;4.47;;;5.90;99.90;;;;;;4938219;29;20075;-79
2022/02/01 09:07:19;;;;;;;19.88;4.85;;;5.80;99.90;;;;;;4933748;29;20032;-79
2022/02/01 09:09:45;;;;;;;15.52;4.75;;;5.80;99.90;;;;;;4948376;29;20028;-79
2022/02/01 09:12:12;;;;;;;20.98;5.53;;;5.70;99.90;;;;;;4938201;29;20028;-79
2022/02/01 09:14:39;;;;;;;25.13;6.40;;;5.60;99.90;;;;;;4921437;29;20012;-79
2022/02/01 09:17:06;;;;;;;14.32;4.95;;;5.60;99.90;;;;;;4922320;29;20036;-79
2022/02/01 09:19:33;;;;;;;15.30;4.85;;;5.60;99.90;;;;;;4921918;29;20019;-79
2022/02/01 09:22:01;;;;;;;26.30;6.32;;;5.60;99.90;;;;;;4937415;29;20030;-79
2022/02/01 09:24:29;;;;;;;20.70;6.80;;;5.60;99.00;;;;;;4922330;29;20032;-80
2022/02/01 09:26:55;;;;;;;19.00;5.88;;;5.60;94.70;;;;;;4922988;29;20019;-79
2022/02/01 09:29:22;;;;;;;22.20;7.22;;;5.70;90.40;;;;;;4922103;29;20036;-79
2022/02/01 09:31:49;;;;;;;28.67;7.68;;;5.80;88.10;;;;;;4938821;29;20045;-79
2022/02/01 09:34:16;;;;;;;21.95;6.40;;;5.90;86.50;;;;;;4940403;29;20040;-79
2022/02/01 09:36:42;;;;;;;21.05;7.18;;;6.00;85.70;;;;;;4909447;29;20140;-79
2022/02/01 09:39:08;;;;;;;20.17;6.20;;;6.10;81.10;;;;;;4921780;29;20420;-79
2022/02/01 09:41:41;;;;;;;32.05;7.72;;;6.20;78.70;;;;;;4922287;29;20040;-79
2022/02/01 09:44:07;;;;;;;24.67;7.47;;;6.10;76.90;;;;;;4932508;29;20101;-79
2022/02/01 09:46:35;;;;;;;24.20;6.35;;;6.10;76.40;;;;;;4915961;29;20052;-79
2022/02/01 09:49:08;;;;;;;27.00;7.07;;;6.00;77.10;;;;;;4916227;29;20044;-79
2022/02/01 09:51:33;;;;;;;25.15;6.68;;;6.10;76.90;;;;;;4907261;29;20126;-79
2022/02/01 09:53:59;;;;;;;30.08;8.52;;;6.10;76.80;;;;;;4907667;29;20543;-79
2022/02/01 09:56:25;;;;;;;;;;;6.20;75.40;;;;;;4896169;29;20126;-78
2022/02/01 09:58:56;;;;;;;31.73;7.55;;;6.30;74.80;;;;;;4907658;29;20022;-76
2022/02/01 10:01:27;;;;;;;30.15;8.68;;;6.20;73.90;;;;;;4924519;29;20067;-77
2022/02/01 10:04:07;;;;;;;21.13;6.28;;;6.30;75.20;;;;;;4913013;29;20067;-77
2022/02/01 10:06:36;;;;;;;24.25;9.65;;;6.50;73.80;;;;;;4892447;29;20104;-77
2022/02/01 10:09:14;;;;;;;25.30;7.53;;;6.60;72.50;;;;;;4903228;29;20052;-77
2022/02/01 10:11:45;;;;;;;26.02;6.53;;;6.80;73.90;;;;;;4929976;29;20072;-78
2022/02/01 10:14:21;;;;;;;23.23;7.25;;;7.10;71.80;;;;;;4943607;29;20036;-78
2022/02/01 10:16:52;;;;;;;20.17;6.60;;;7.40;68.60;;;;;;4929153;29;20084;-77
2022/02/01 10:19:19;;;;;;;27.15;6.88;;;7.50;66.90;;;;;;4938349;29;20118;-78
2022/02/01 10:22:02;;;;;;;25.10;7.57;;;7.40;66.90;;;;;;4942153;29;20035;-78
2022/02/01 10:24:32;;;;;;;22.45;5.90;;;7.50;65.30;;;;;;4933039;29;20054;-77
2022/02/01 10:27:08;;;;;;;20.35;5.53;;;7.70;64.60;;;;;;4913149;29;20040;-79
2022/02/01 10:33:12;;;;;;;23.00;6.57;;;7.90;61.70;;;;;;5485414;23;19926;-79
2022/02/01 10:35:55;;;;;;;19.13;6.60;;;7.70;61.40;;;;;;4970867;29;20039;-79
2022/02/01 10:38:22;;;;;;;31.35;8.18;;;7.60;62.20;;;;;;4966877;29;20354;-80
2022/02/01 10:40:51;;;;;;;20.80;5.72;;;7.50;61.70;;;;;;4969204;29;20019;-80
2022/02/01 10:43:21;;;;;;;21.88;6.28;;;7.60;61.70;;;;;;4975895;29;20035;-78
2022/02/01 10:45:49;;;;;;;18.92;4.80;;;7.80;61.30;;;;;;4946641;29;20047;-77
2022/02/01 10:48:17;;;;;;;21.67;5.60;;;7.90;59.70;;;;;;4958518;29;20062;-78
2022/02/01 10:50:44;;;;;;;13.85;4.30;;;7.90;59.20;;;;;;4960904;29;20032;-79
2022/02/01 10:53:17;;;;;;;17.67;5.45;;;8.10;59.10;;;;;;4968023;29;20055;-78
2022/02/01 10:55:44;;;;;;;15.48;4.57;;;8.20;57.00;;;;;;4962193;29;20019;-79
2022/02/01 10:58:11;;;;;;;21.13;4.43;;;8.10;56.30;;;;;;4968597;29;20035;-79
2022/02/01 11:00:37;;;;;;;11.20;3.72;;;7.90;56.60;;;;;;4959900;29;20023;-78
2022/02/01 11:03:03;;;;;;;13.63;4.28;;;7.70;55.80;;;;;;4972934;29;20022;-79
2022/02/01 11:05:30;;;;;;;14.02;5.03;;;7.60;54.20;;;;;;4961966;28;20039;-79
2022/02/01 11:07:56;;;;;;;16.77;4.85;;;7.30;56.40;;;;;;4959113;29;20042;-80
2022/02/01 11:10:22;;;;;;;28.48;6.53;;;7.20;56.60;;;;;;4972912;29;20051;-79
2022/02/01 11:12:47;;;;;;;18.90;4.53;;;7.20;56.00;;;;;;4972848;28;20039;-79
2022/02/01 11:15:21;;;;;;;15.35;5.28;;;7.20;56.30;;;;;;4972964;29;20035;-79
2022/02/01 11:17:50;;;;;;;22.90;4.78;;;6.90;56.70;;;;;;4975292;29;20027;-79
2022/02/01 11:20:30;;;;;;;20.35;5.70;;;6.70;57.50;;;;;;4971134;29;20046;-79
2022/02/01 11:23:07;;;;;;;22.25;5.68;;;6.60;57.40;;;;;;4976668;29;20096;-79
2022/02/01 11:25:49;;;;;;;19.17;5.68;;;6.40;57.20;;;;;;4974972;29;20031;-79
2022/02/01 11:28:38;;;;;;;19.83;5.93;;;6.40;58.80;;;;;;4974400;29;20041;-79
2022/02/01 11:31:05;;;;;;;23.80;6.47;;;6.50;63.90;;;;;;4976042;29;20031;-78
2022/02/01 11:33:49;;;;;;;20.90;5.50;;;6.40;66.60;;;;;;4987984;28;20047;-78
2022/02/01 11:36:15;;;;;;;20.02;5.82;;;6.30;65.40;;;;;;4970215;28;20042;-79
2022/02/01 11:38:56;;;;;;;18.60;5.30;;;6.10;67.70;;;;;;4972857;28;20093;-78
2022/02/01 11:41:33;;;;;;;30.25;5.78;;;6.10;72.50;;;;;;4961095;28;20058;-78
2022/02/01 11:44:10;;;;;;;21.13;5.95;;;6.10;70.70;;;;;;4991608;28;20027;-79
2022/02/01 11:46:35;;;;;;;22.92;6.05;;;6.20;69.20;;;;;;4988584;28;20074;-78
2022/02/01 11:49:02;;;;;;;24.80;5.90;;;6.20;68.70;;;;;;4982568;28;20026;-79
2022/02/01 11:51:28;;;;;;;;;;;6.10;72.20;;;;;;4981066;28;20428;-78
2022/02/01 11:53:59;;;;;;;18.88;4.97;;;6.20;72.80;;;;;;4988272;28;20378;-79
2022/02/01 11:56:40;;;;;;;22.17;5.45;;;6.30;68.90;;;;;;4974697;28;20031;-79
2022/02/01 11:59:09;;;;;;;94.00;31.98;;;6.20;68.70;;;;;;4973230;28;20034;-77
2022/02/01 12:01:37;;;;;;;79.40;36.35;;;6.10;69.50;;;;;;4989714;28;20037;-79
2022/02/01 12:04:10;;;;;;;62.10;31.27;;;6.10;70.20;;;;;;4971076;28;20380;-79
2022/02/01 12:06:54;;;;;;;24.45;9.18;;;6.20;68.30;;;;;;4965067;28;20023;-78
2022/02/01 12:09:21;;;;;;;27.15;9.43;;;6.20;67.50;;;;;;4978816;28;20023;-78
2022/02/01 12:11:56;;;;;;;25.60;11.43;;;6.10;68.20;;;;;;4961592;28;20058;-79
2022/02/01 12:14:22;;;;;;;21.33;7.13;;;6.00;67.90;;;;;;4979012;28;20554;-78
2022/02/01 12:16:49;;;;;;;;;;;5.90;68.80;;;;;;4966468;28;20092;-78
2022/02/01 12:19:31;;;;;;;23.25;7.50;;;5.70;68.30;;;;;;4992727;28;19910;-79
2022/02/01 12:22:22;;;;;;;22.45;6.30;;;5.80;69.30;;;;;;4975620;28;20035;-80
2022/02/01 12:24:48;;;;;;;13.90;4.28;;;5.70;68.60;;;;;;4992928;28;20049;-79
2022/02/01 12:27:14;;;;;;;15.40;4.82;;;5.60;67.00;;;;;;4975948;28;20031;-80
2022/02/01 12:29:40;;;;;;;18.20;3.45;;;5.70;67.10;;;;;;4975676;28;20045;-78
2022/02/01 12:34:51;;;;;;;15.82;3.10;;;5.70;68.20;;;;;;5164316;23;20606;-78
2022/02/01 12:37:23;;;;;;;10.98;2.80;;;5.80;67.00;;;;;;4974519;28;20044;-79
2022/02/01 12:40:18;;;;;;;13.52;2.90;;;5.80;64.70;;;;;;4971467;28;20024;-79
2022/02/01 12:42:50;;;;;;;12.90;2.67;;;5.90;62.50;;;;;;4964512;28;20019;-79
2022/02/01 12:48:05;;;;;;;9.25;2.35;;;5.90;64.10;;;;;;4977300;28;20043;-75
2022/02/01 12:50:31;;;;;;;18.00;2.85;;;6.00;64.70;;;;;;4948703;29;20107;-77
2022/02/01 12:52:58;;;;;;;;;;;6.20;63.40;;;;;;4949307;29;20463;-77
2022/02/01 12:55:28;;;;;;;15.95;2.58;;;6.30;61.60;;;;;;4968210;28;19918;-79
2022/02/01 12:57:54;;;;;;;15.18;3.00;;;6.40;60.80;;;;;;4952056;29;20042;-79
2022/02/01 13:00:21;;;;;;;;;;;6.60;57.50;;;;;;4968979;28;20015;-79
2022/02/01 13:02:47;;;;;;;;;;;6.50;54.40;;;;;;4971571;29;19933;-79
2022/02/01 13:05:17;;;;;;;14.30;2.67;;;6.30;53.10;;;;;;4975665;29;19902;-79
2022/02/01 13:07:57;;;;;;;8.88;2.30;;;6.30;53.30;;;;;;4970595;29;20047;-78
2022/02/01 13:16:18;;;;;;;8.98;2.38;;;6.40;53.90;;;;;;4973038;29;20051;-79
2022/02/01 13:21:16;;;;;;;118.60;47.67;;;6.50;54.90;;;;;;4964727;29;20090;-77
2022/02/01 13:23:56;;;;;;;101.43;43.28;;;6.60;54.70;;;;;;4963921;29;20028;-78
2022/02/01 13:26:28;;;;;;;69.78;32.97;;;6.50;54.50;;;;;;4967506;29;20020;-79
2022/02/01 13:29:23;;;;;;;149.70;65.80;;;6.50;55.60;;;;;;4972185;29;20030;-79
2022/02/01 13:31:51;;;;;;;223.82;97.43;;;6.30;56.30;;;;;;4954295;29;20031;-79
2022/02/01 13:34:27;;;;;;;82.63;35.22;;;6.10;57.20;;;;;;4973968;28;20051;-79
2022/02/01 13:37:00;;;;;;;33.70;13.82;;;6.20;58.40;;;;;;4979137;28;20027;-79
2022/02/01 13:39:37;;;;;;;31.45;13.45;;;6.20;58.30;;;;;;4961949;28;20115;-80
2022/02/01 13:42:11;;;;;;;17.17;7.40;;;6.20;59.20;;;;;;4960795;28;20027;-79
2022/02/01 13:44:38;;;;;;;18.08;7.95;;;6.10;60.90;;;;;;4979558;28;20027;-80
2022/02/01 13:47:11;;;;;;;19.00;9.23;;;6.00;62.20;;;;;;4961861;29;20023;-79
2022/02/01 13:49:38;;;;;;;22.10;7.90;;;6.10;62.90;;;;;;4972605;28;20015;-79
2022/02/01 13:52:06;;;;;;;12.95;5.07;;;6.20;62.80;;;;;;4973555;29;20042;-79
2022/02/01 13:54:44;;;;;;;19.00;9.98;;;6.40;60.40;;;;;;4956773;29;20044;-79
2022/02/01 13:57:14;;;;;;;9.70;5.65;;;6.30;58.20;;;;;;4960666;28;20027;-79
2022/02/01 13:59:41;;;;;;;11.13;4.10;;;6.50;57.70;;;;;;4957348;29;20031;-80
2022/02/01 14:02:19;;;;;;;7.40;3.05;;;6.40;57.80;;;;;;4977475;29;20033;-79
2022/02/01 14:05:01;;;;;;;8.27;4.05;;;6.30;58.50;;;;;;4960660;29;20039;-78
2022/02/01 14:07:51;;;;;;;6.75;2.97;;;6.10;57.80;;;;;;4977485;28;20011;-80
2022/02/01 14:10:35;;;;;;;8.27;2.97;;;6.00;58.90;;;;;;4978008;28;20019;-80
2022/02/01 14:13:32;;;;;;;8.43;2.80;;;5.80;59.40;;;;;;4960808;28;20102;-81
2022/02/01 14:32:49;;;;;;;7.15;2.60;;;5.60;60.40;;;;;;4976195;28;20028;-80
2022/02/01 14:35:02;;;;;;;8.43;3.20;;;5.60;60.50;;;;;;4976843;29;20054;-80
2022/02/01 14:45:34;;;;;;;10.32;4.03;;;5.40;64.10;;;;;;4956860;29;20059;-79
2022/02/01 14:48:00;;;;;;;13.27;6.28;;;5.20;64.80;;;;;;4962358;28;20031;-79
2022/02/01 14:50:26;;;;;;;;;;;5.30;65.10;;;;;;4959883;29;20026;-79
2022/02/01 14:52:52;;;;;;;13.27;4.38;;;5.10;65.10;;;;;;4939405;29;19942;-78
2022/02/01 14:55:22;;;;;;;15.43;7.47;;;5.10;65.00;;;;;;4955259;29;20040;-79
2022/02/01 15:06:47;;;;;;;11.70;4.35;;;4.70;69.10;;;;;;4953331;29;20082;-79
2022/02/01 15:11:53;;;;;;;12.52;4.40;;;4.50;70.50;;;;;;4960079;29;20034;-80
2022/02/01 15:14:19;;;;;;;15.00;6.15;;;4.40;71.00;;;;;;4953749;29;20032;-80
2022/02/01 15:16:45;;;;;;;23.65;8.90;;;4.30;71.70;;;;;;4953107;29;20034;-80
2022/02/01 15:19:11;;;;;;;17.27;9.98;;;4.30;73.20;;;;;;4958595;29;20035;-80
2022/02/01 15:21:36;;;;;;;17.90;8.43;;;4.10;74.80;;;;;;4958708;29;20060;-80
2022/02/01 15:24:02;;;;;;;22.48;10.45;;;4.00;75.80;;;;;;4960478;29;20035;-82